createdAt,value
2023-03-27T00:01:15.957Z,97508.31
2023-03-27T00:03:42.934Z,97504.81
2023-03-27T00:06:12.196Z,97509.91
2023-03-27T00:08:38.771Z,97511.81
2023-03-27T00:11:07.117Z,97517.19
2023-03-27T00:13:34.033Z,97524.16
2023-03-27T00:16:01.071Z,97528.47
2023-03-27T00:18:29.536Z,97524.16
2023-03-27T00:21:00.841Z,97526.59
2023-03-27T00:23:31.381Z,97531.97
2023-03-27T00:25:58.900Z,97538.72
2023-03-27T00:28:27.373Z,97544.91
2023-03-27T00:30:55.827Z,97543.31
2023-03-27T00:33:23.690Z,97550.59
2023-03-27T00:35:51.068Z,97560.56
2023-03-27T00:38:18.314Z,97564.09
2023-03-27T00:40:46.738Z,97571.75
2023-03-27T00:43:22.317Z,97578.28
2023-03-27T00:45:52.642Z,97585.84
2023-03-27T00:48:20.660Z,97594.22
2023-03-27T00:50:49.624Z,97593.63
2023-03-27T00:53:21.210Z,97591.81
2023-03-27T00:55:51.586Z,97602.06
2023-03-27T00:58:26.130Z,97606.13
2023-03-27T01:00:55.499Z,97616.66
2023-03-27T01:03:27.446Z,97621.81
2023-03-27T01:05:55.941Z,97631.53
2023-03-27T01:08:24.413Z,97627.53
2023-03-27T01:11:09.516Z,97626.25
2023-03-27T01:14:00.494Z,97644.03
2023-03-27T01:16:52.158Z,97640.03
2023-03-27T01:19:49.768Z,97641.66
2023-03-27T01:22:34.866Z,97648.66
2023-03-27T01:25:40.011Z,97662.41
2023-03-27T01:28:27.065Z,97656.22
2023-03-27T01:31:05.719Z,97661.09
2023-03-27T01:34:11.077Z,97676.97
2023-03-27T01:37:18.875Z,97689.13
2023-03-27T01:40:24.356Z,97710.91
2023-03-27T01:42:59.541Z,97712.34
2023-03-27T01:46:01.135Z,97723.66
2023-03-27T01:48:45.970Z,97723.19
2023-03-27T01:51:25.981Z,97739.91
2023-03-27T01:53:58.923Z,97738.59
2023-03-27T01:56:32.564Z,97740.78
2023-03-27T01:59:21.824Z,97745.88
2023-03-27T02:01:53.453Z,97757.44
2023-03-27T02:04:27.322Z,97761.50
2023-03-27T02:07:04.888Z,97764.72
2023-03-27T02:09:37.337Z,97773.88
2023-03-27T02:12:11.972Z,97778.72
2023-03-27T02:14:42.812Z,97791.16
2023-03-27T02:17:13.937Z,97789.56
2023-03-27T02:20:09.490Z,97799.81
2023-03-27T02:22:38.189Z,97806.78
2023-03-27T02:25:29.929Z,97808.41
2023-03-27T02:28:11.177Z,97820.22
2023-03-27T02:30:42.342Z,97823.44
2023-03-27T02:33:17.828Z,97837.41
2023-03-27T02:35:55.597Z,97842.78
2023-03-27T02:38:33.056Z,97839.81
2023-03-27T02:41:41.031Z,97842.22
2023-03-27T02:44:12.743Z,97862.91
2023-03-27T02:46:42.122Z,97870.47
2023-03-27T02:49:24.056Z,97873.47
2023-03-27T02:52:01.071Z,97882.09
2023-03-27T02:54:32.417Z,97889.06
2023-03-27T02:57:05.111Z,97893.91
2023-03-27T02:59:42.649Z,97899.25
2023-03-27T03:02:14.638Z,97911.06
2023-03-27T03:04:46.913Z,97929.34
2023-03-27T03:07:14.318Z,97925.03
2023-03-27T03:09:41.640Z,97935.75
2023-03-27T03:12:08.717Z,97951.31
2023-03-27T03:14:39.833Z,97948.63
2023-03-27T03:17:06.585Z,97955.03
2023-03-27T03:19:33.027Z,97960.94
2023-03-27T03:22:01.011Z,97968.69
2023-03-27T03:24:27.695Z,97968.41
2023-03-27T03:26:54.210Z,97968.41
2023-03-27T03:29:20.590Z,97983.97
2023-03-27T03:31:47.113Z,97991.50
2023-03-27T03:34:16.282Z,97996.31
2023-03-27T03:36:44.795Z,98000.63
2023-03-27T03:39:12.569Z,98005.47
2023-03-27T03:41:39.146Z,98012.41
2023-03-27T03:44:05.683Z,98020.47
2023-03-27T03:46:32.243Z,98020.94
2023-03-27T03:48:59.440Z,98031.69
2023-03-27T03:51:26.319Z,98032.94
2023-03-27T03:53:52.891Z,98046.63
2023-03-27T03:56:19.704Z,98051.19
2023-03-27T03:58:46.162Z,98062.72
2023-03-27T04:01:12.657Z,98070.47
2023-03-27T04:03:39.254Z,98070.78
2023-03-27T04:06:07.317Z,98084.22
2023-03-27T04:08:34.840Z,98085.03
2023-03-27T04:11:01.260Z,98101.91
2023-03-27T04:13:27.674Z,98114.72
2023-03-27T04:15:55.205Z,98131.78
2023-03-27T04:18:24.713Z,98130.16
2023-03-27T04:20:51.285Z,98136.56
2023-03-27T04:23:21.147Z,98144.06
2023-03-27T04:25:47.631Z,98138.16
2023-03-27T04:28:17.524Z,98145.94
2023-03-27T04:30:45.229Z,98152.91
2023-03-27T04:33:22.977Z,98168.22
2023-03-27T04:36:06.429Z,98170.09
2023-03-27T04:38:36.623Z,98179.97
2023-03-27T04:41:03.722Z,98190.34
2023-03-27T04:43:30.686Z,98199.34
2023-03-27T04:45:57.068Z,98193.94
2023-03-27T04:48:23.427Z,98200.31
2023-03-27T04:50:49.829Z,98218.25
2023-03-27T04:53:17.168Z,98225.75
2023-03-27T04:55:45.797Z,98227.34
2023-03-27T04:58:12.970Z,98232.09
2023-03-27T05:00:40.183Z,98233.69
2023-03-27T05:03:07.879Z,98247.06
2023-03-27T05:05:34.772Z,98256.72
2023-03-27T05:08:01.450Z,98262.88
2023-03-27T05:10:27.876Z,98264.19
2023-03-27T05:12:57.109Z,98272.47
2023-03-27T05:15:24.355Z,98278.00
2023-03-27T05:17:54.699Z,98280.69
2023-03-27T05:20:22.236Z,98282.81
2023-03-27T05:22:49.260Z,98308.22
2023-03-27T05:25:15.958Z,98321.81
2023-03-27T05:27:50.079Z,98320.91
2023-03-27T05:30:19.053Z,98329.22
2023-03-27T05:32:52.220Z,98342.00
2023-03-27T05:35:21.652Z,98344.69
2023-03-27T05:37:49.971Z,98352.72
2023-03-27T05:40:20.615Z,98358.31
2023-03-27T05:42:47.486Z,98366.34
2023-03-27T05:45:14.711Z,98365.53
2023-03-27T05:47:51.960Z,98372.75
2023-03-27T05:50:21.494Z,98378.94
2023-03-27T05:52:47.935Z,98378.38
2023-03-27T05:55:17.234Z,98398.63
2023-03-27T05:57:43.658Z,98388.19
2023-03-27T06:00:13.914Z,98404.72
2023-03-27T06:02:43.165Z,98409.25
2023-03-27T06:05:13.365Z,98406.28
2023-03-27T06:07:42.468Z,98413.50
2023-03-27T06:10:13.816Z,98429.06
2023-03-27T06:12:41.668Z,98427.44
2023-03-27T06:15:09.750Z,98429.06
2023-03-27T06:17:39.330Z,98436.03
2023-03-27T06:20:12.327Z,98446.00
2023-03-27T06:22:42.429Z,98455.34
2023-03-27T06:25:09.098Z,98473.03
2023-03-27T06:27:35.565Z,98483.38
2023-03-27T06:30:02.009Z,98486.06
2023-03-27T06:32:28.485Z,98484.19
2023-03-27T06:34:54.887Z,98496.53
2023-03-27T06:37:21.288Z,98505.13
2023-03-27T06:39:50.724Z,98504.63
2023-03-27T06:42:17.426Z,98511.38
2023-03-27T06:44:44.358Z,98520.22
2023-03-27T06:47:10.794Z,98521.03
2023-03-27T06:49:37.250Z,98514.63
2023-03-27T06:52:04.025Z,98526.69
2023-03-27T06:54:30.942Z,98529.97
2023-03-27T06:56:57.590Z,98537.59
2023-03-27T06:59:23.961Z,98544.88
2023-03-27T07:01:52.336Z,98553.81
2023-03-27T07:04:18.835Z,98564.50
2023-03-27T07:06:48.691Z,98561.41
2023-03-27T07:09:15.225Z,98566.78
2023-03-27T07:11:41.609Z,98570.59
2023-03-27T07:14:08.252Z,98571.00
2023-03-27T07:16:34.719Z,98570.84
2023-03-27T07:19:02.363Z,98590.81
2023-03-27T07:21:29.565Z,98586.00
2023-03-27T07:23:56.141Z,98590.88
2023-03-27T07:26:22.594Z,98600.06
2023-03-27T07:28:50.498Z,98602.81
2023-03-27T07:31:31.534Z,98602.47
2023-03-27T07:34:05.308Z,98599.50
2023-03-27T07:36:31.705Z,98611.25
2023-03-27T07:39:00.341Z,98613.44
2023-03-27T07:41:26.860Z,98614.25
2023-03-27T07:43:53.264Z,98612.75
2023-03-27T07:46:19.724Z,98620.38
2023-03-27T07:48:46.204Z,98624.16
2023-03-27T07:51:14.350Z,98633.91
2023-03-27T07:53:41.478Z,98639.53
2023-03-27T07:56:08.773Z,98651.03
2023-03-27T07:58:35.467Z,98657.69
2023-03-27T08:01:03.284Z,98656.06
2023-03-27T08:03:30.842Z,98663.38
2023-03-27T08:05:59.381Z,98659.63
2023-03-27T08:08:26.564Z,98673.28
2023-03-27T08:10:57.731Z,98678.41
2023-03-27T08:13:24.546Z,98689.69
2023-03-27T08:15:51.430Z,98700.41
2023-03-27T08:18:17.939Z,98683.03
2023-03-27T08:20:45.580Z,98692.09
2023-03-27T08:23:12.194Z,98693.28
2023-03-27T08:25:38.703Z,98695.97
2023-03-27T08:28:05.191Z,98695.97
2023-03-27T08:30:31.706Z,98710.03
2023-03-27T08:33:00.014Z,98708.31
2023-03-27T08:35:26.629Z,98713.78
2023-03-27T08:37:53.965Z,98708.56
2023-03-27T08:40:26.130Z,98722.53
2023-03-27T08:42:57.128Z,98708.88
2023-03-27T08:45:32.349Z,98719.81
2023-03-27T08:48:05.642Z,98728.59
2023-03-27T08:50:44.061Z,98733.59
2023-03-27T08:53:38.264Z,98742.00
2023-03-27T08:56:05.459Z,98743.72
2023-03-27T08:58:33.602Z,98744.59
2023-03-27T09:01:12.003Z,98747.00
2023-03-27T09:03:55.847Z,98747.03
2023-03-27T09:06:28.002Z,98748.00
2023-03-27T09:09:46.433Z,98764.03
2023-03-27T09:12:26.284Z,98771.09
2023-03-27T09:15:00.467Z,98763.00
2023-03-27T09:17:39.395Z,98765.44
2023-03-27T09:20:40.696Z,98778.63
2023-03-27T09:23:21.687Z,98774.84
2023-03-27T09:25:56.000Z,98779.25
2023-03-27T09:28:29.989Z,98777.22
2023-03-27T09:30:57.469Z,98776.97
2023-03-27T09:33:27.052Z,98776.72
2023-03-27T09:35:54.235Z,98789.59
2023-03-27T09:38:38.752Z,98780.75
2023-03-27T09:41:10.662Z,98791.03
2023-03-27T09:43:58.212Z,98790.72
2023-03-27T09:46:28.415Z,98796.47
2023-03-27T09:49:20.934Z,98806.69
2023-03-27T09:51:53.210Z,98799.03
2023-03-27T09:54:22.367Z,98809.31
2023-03-27T09:56:53.834Z,98812.00
2023-03-27T09:59:29.563Z,98830.34
2023-03-27T10:02:08.046Z,98814.63
2023-03-27T10:04:35.662Z,98821.44
2023-03-27T10:07:09.401Z,98819.63
2023-03-27T10:09:38.405Z,98826.16
2023-03-27T10:12:08.050Z,98819.44
2023-03-27T10:14:40.092Z,98827.03
2023-03-27T10:17:07.369Z,98824.38
2023-03-27T10:19:38.663Z,98818.75
2023-03-27T10:22:18.699Z,98826.13
2023-03-27T10:24:47.703Z,98833.94
2023-03-27T10:27:26.434Z,98836.31
2023-03-27T10:29:53.256Z,98842.75
2023-03-27T10:35:27.087Z,98835.34
2023-03-27T10:37:56.318Z,98843.69
2023-03-27T10:40:31.041Z,98847.00
2023-03-27T10:43:02.978Z,98837.47
2023-03-27T10:45:31.593Z,98841.84
2023-03-27T10:48:01.897Z,98858.66
2023-03-27T10:50:33.710Z,98869.94
2023-03-27T10:53:14.415Z,98863.72
2023-03-27T10:55:51.683Z,98854.31
2023-03-27T10:58:27.886Z,98861.97
2023-03-27T11:01:19.513Z,98850.38
2023-03-27T11:03:50.984Z,98852.53
2023-03-27T11:06:20.846Z,98857.66
2023-03-27T11:09:06.496Z,98856.41
2023-03-27T11:11:38.815Z,98865.38
2023-03-27T11:14:13.857Z,98857.25
2023-03-27T11:16:49.599Z,98865.81
2023-03-27T11:19:22.438Z,98859.53
2023-03-27T11:21:56.037Z,98867.91
2023-03-27T11:24:38.385Z,98860.91
2023-03-27T11:27:15.290Z,98876.47
2023-03-27T11:29:58.802Z,98880.13
2023-03-27T11:33:01.794Z,98875.78
2023-03-27T11:35:36.311Z,98891.00
2023-03-27T11:38:08.367Z,98886.03
2023-03-27T11:40:39.792Z,98887.72
2023-03-27T11:43:11.578Z,98889.84
2023-03-27T11:45:53.087Z,98890.06
2023-03-27T11:48:50.882Z,98894.72
2023-03-27T11:51:46.620Z,98896.09
2023-03-27T11:54:27.151Z,98884.25
2023-03-27T11:57:00.153Z,98891.78
2023-03-27T11:59:48.005Z,98882.84
2023-03-27T12:03:02.164Z,98887.94
2023-03-27T12:05:55.273Z,98899.91
2023-03-27T12:08:51.017Z,98898.28
2023-03-27T12:11:20.424Z,98895.03
2023-03-27T12:14:17.631Z,98889.84
2023-03-27T12:16:45.784Z,98890.38
2023-03-27T12:19:38.528Z,98901.50
2023-03-27T12:22:30.165Z,98905.19
2023-03-27T12:25:06.192Z,98901.94
2023-03-27T12:27:42.144Z,98888.50
2023-03-27T12:30:17.633Z,98889.06
2023-03-27T12:32:55.370Z,98877.72
2023-03-27T12:35:26.883Z,98893.91
2023-03-27T12:38:00.727Z,98879.84
2023-03-27T12:40:33.148Z,98883.84
2023-03-27T12:43:07.447Z,98893.53
2023-03-27T12:45:38.773Z,98885.72
2023-03-27T12:48:11.057Z,98887.09
2023-03-27T12:50:45.211Z,98879.84
2023-03-27T12:53:26.905Z,98885.56
2023-03-27T12:56:16.158Z,98873.16
2023-03-27T12:58:44.731Z,98888.84
2023-03-27T13:01:26.445Z,98900.41
2023-03-27T13:04:31.449Z,98901.47
2023-03-27T13:07:11.749Z,98900.91
2023-03-27T13:10:08.259Z,98914.63
2023-03-27T13:12:59.586Z,98918.06
2023-03-27T13:15:49.112Z,98927.19
2023-03-27T13:18:33.409Z,98931.78
2023-03-27T13:21:27.813Z,98937.09
2023-03-27T13:24:12.197Z,98942.69
2023-03-27T13:26:58.387Z,98946.34
2023-03-27T13:29:30.367Z,98959.50
2023-03-27T13:32:03.355Z,98968.25
2023-03-27T13:34:40.806Z,98984.44
2023-03-27T13:37:07.454Z,98998.56
2023-03-27T13:39:59.610Z,99000.19
2023-03-27T13:42:37.436Z,98997.28
2023-03-27T13:45:15.220Z,99008.31
2023-03-27T13:48:13.049Z,99002.88
2023-03-27T13:51:11.882Z,99004.91
2023-03-27T13:53:44.418Z,98998.16
2023-03-27T13:56:29.763Z,99004.34
2023-03-27T13:59:18.186Z,99008.53
2023-03-27T14:01:47.781Z,99011.28
2023-03-27T14:04:23.490Z,99017.84
2023-03-27T14:07:05.092Z,99016.41
2023-03-27T14:10:03.303Z,99015.19
2023-03-27T14:12:59.033Z,99016.72
2023-03-27T14:15:50.509Z,99014.00
2023-03-27T14:19:01.020Z,98993.59
2023-03-27T14:21:38.510Z,98994.69
2023-03-27T14:24:24.139Z,98991.41
2023-03-27T14:26:53.793Z,99004.94
2023-03-27T14:29:22.651Z,99003.69
2023-03-27T14:31:49.506Z,99009.53
2023-03-27T14:34:22.453Z,99010.44
2023-03-27T14:36:53.576Z,99008.84
2023-03-27T14:39:22.551Z,99011.69
2023-03-27T14:42:00.999Z,99013.78
2023-03-27T14:44:33.592Z,99013.13
2023-03-27T14:47:09.925Z,99023.81
2023-03-27T14:49:45.311Z,99015.56
2023-03-27T14:52:22.037Z,99022.69
2023-03-27T14:54:55.186Z,99021.34
2023-03-27T14:57:22.675Z,99016.34
2023-03-27T14:59:49.331Z,99022.06
2023-03-27T15:04:56.533Z,99024.22
2023-03-27T15:07:30.843Z,99028.66
2023-03-27T15:10:06.411Z,99022.94
2023-03-27T15:12:36.904Z,99016.97
2023-03-27T15:15:06.924Z,99019.72
2023-03-27T15:17:34.775Z,99018.16
2023-03-27T15:20:14.345Z,99025.22
2023-03-27T15:22:46.118Z,99032.53
2023-03-27T15:25:17.888Z,99029.63
2023-03-27T15:27:53.084Z,99031.41
2023-03-27T15:30:37.558Z,99032.34
2023-03-27T15:33:07.345Z,99029.59
2023-03-27T15:35:47.194Z,99031.25
2023-03-27T15:38:18.609Z,99014.28
2023-03-27T15:40:46.575Z,99031.81
2023-03-27T15:43:13.344Z,99028.56
2023-03-27T15:45:58.804Z,99040.00
2023-03-27T15:48:38.681Z,99034.69
2023-03-27T15:51:10.510Z,99026.91
2023-03-27T15:53:47.304Z,99038.66
2023-03-27T15:56:13.764Z,99036.22
2023-03-27T15:58:47.494Z,99046.16
2023-03-27T16:01:21.519Z,99051.63
2023-03-27T16:03:50.499Z,99040.84
2023-03-27T16:06:36.446Z,99049.31
2023-03-27T16:09:21.400Z,99050.50
2023-03-27T16:11:49.685Z,99051.34
2023-03-27T16:14:26.754Z,99050.69
2023-03-27T16:17:10.879Z,99047.69
2023-03-27T16:19:57.169Z,99054.34
2023-03-27T16:22:26.379Z,99052.91
2023-03-27T16:24:54.104Z,99053.41
2023-03-27T16:27:23.696Z,99059.09
2023-03-27T16:29:53.894Z,99073.41
2023-03-27T16:32:22.523Z,99065.59
2023-03-27T16:34:51.678Z,99079.75
2023-03-27T16:37:20.928Z,99071.16
2023-03-27T16:39:47.429Z,99074.91
2023-03-27T16:42:16.940Z,99075.06
2023-03-27T16:44:44.586Z,99070.97
2023-03-27T16:47:12.655Z,99080.44
2023-03-27T16:49:40.115Z,99082.31
2023-03-27T16:52:06.923Z,99088.91
2023-03-27T16:54:33.408Z,99087.50
2023-03-27T16:57:00.800Z,99098.78
2023-03-27T16:59:28.357Z,99098.78
2023-03-27T17:01:56.059Z,99103.13
2023-03-27T17:04:22.712Z,99088.97
2023-03-27T17:06:49.322Z,99088.63
2023-03-27T17:09:17.564Z,99084.06
2023-03-27T17:11:44.438Z,99087.75
2023-03-27T17:14:11.833Z,99093.84
2023-03-27T17:16:39.756Z,99093.66
2023-03-27T17:19:06.562Z,99090.91
2023-03-27T17:21:33.158Z,99091.53
2023-03-27T17:24:00.934Z,99091.44
2023-03-27T17:26:30.334Z,99095.09
2023-03-27T17:28:57.649Z,99096.53
2023-03-27T17:31:24.998Z,99100.66
2023-03-27T17:33:52.057Z,99098.69
2023-03-27T17:36:29.784Z,99096.25
2023-03-27T17:39:07.907Z,99104.75
2023-03-27T17:41:34.375Z,99108.75
2023-03-27T17:44:00.989Z,99117.50
2023-03-27T17:46:27.518Z,99114.25
2023-03-27T17:48:54.179Z,99123.34
2023-03-27T17:51:21.567Z,99134.09
2023-03-27T17:53:48.152Z,99129.78
2023-03-27T17:56:14.638Z,99133.28
2023-03-27T17:58:41.869Z,99139.47
2023-03-27T18:01:19.886Z,99137.84
2023-03-27T18:03:46.983Z,99140.03
2023-03-27T18:06:17.304Z,99138.97
2023-03-27T18:08:45.002Z,99145.19
2023-03-27T18:11:13.577Z,99149.25
2023-03-27T18:13:41.474Z,99150.88
2023-03-27T18:16:10.565Z,99159.50
2023-03-27T18:18:39.171Z,99150.88
2023-03-27T18:21:09.991Z,99154.13
2023-03-27T18:23:38.344Z,99157.88
2023-03-27T18:26:12.803Z,99171.06
2023-03-27T18:28:39.548Z,99175.59
2023-03-27T18:31:09.135Z,99171.88
2023-03-27T18:33:36.143Z,99175.38
2023-03-27T18:36:04.325Z,99173.16
2023-03-27T18:38:31.191Z,99183.09
2023-03-27T18:40:59.810Z,99195.94
2023-03-27T18:43:26.662Z,99188.13
2023-03-27T18:46:02.150Z,99197.56
2023-03-27T18:48:30.957Z,99202.44
2023-03-27T18:50:59.881Z,99207.81
2023-03-27T18:53:27.139Z,99201.19
2023-03-27T18:55:54.510Z,99199.53
2023-03-27T18:58:24.098Z,99195.00
2023-03-27T19:00:52.893Z,99205.50
2023-03-27T19:03:23.846Z,99210.28
2023-03-27T19:05:51.748Z,99202.69
2023-03-27T19:08:19.881Z,99205.03
2023-03-27T19:10:46.576Z,99217.28
2023-03-27T19:13:13.353Z,99213.44
2023-03-27T19:15:41.822Z,99220.47
2023-03-27T19:18:08.748Z,99220.91
2023-03-27T19:20:35.634Z,99223.03
2023-03-27T19:23:02.128Z,99225.59
2023-03-27T19:25:28.668Z,99235.03
2023-03-27T19:27:55.993Z,99225.22
2023-03-27T19:30:22.506Z,99235.47
2023-03-27T19:32:50.423Z,99235.34
2023-03-27T19:35:17.212Z,99232.09
2023-03-27T19:37:43.792Z,99229.66
2023-03-27T19:40:10.642Z,99247.00
2023-03-27T19:42:37.105Z,99237.91
2023-03-27T19:45:03.962Z,99245.75
2023-03-27T19:47:30.406Z,99249.25
2023-03-27T19:49:57.373Z,99247.00
2023-03-27T19:52:25.795Z,99245.94
2023-03-27T19:54:53.750Z,99262.63
2023-03-27T19:57:20.933Z,99264.72
2023-03-27T19:59:47.429Z,99258.53
2023-03-27T20:02:14.425Z,99250.59
2023-03-27T20:04:40.958Z,99262.38
2023-03-27T20:07:07.639Z,99252.13
2023-03-27T20:09:34.583Z,99268.66
2023-03-27T20:12:01.418Z,99266.44
2023-03-27T20:14:27.915Z,99268.41
2023-03-27T20:16:54.649Z,99268.84
2023-03-27T20:19:22.160Z,99274.19
2023-03-27T20:21:48.978Z,99278.97
2023-03-27T20:24:17.292Z,99278.97
2023-03-27T20:26:47.963Z,99272.81
2023-03-27T20:29:20.313Z,99286.59
2023-03-27T20:31:47.923Z,99285.53
2023-03-27T20:34:19.150Z,99290.44
2023-03-27T20:36:45.972Z,99292.06
2023-03-27T20:39:14.153Z,99288.56
2023-03-27T20:41:40.824Z,99294.28
2023-03-27T20:44:15.697Z,99298.84
2023-03-27T20:46:47.409Z,99314.44
2023-03-27T20:49:37.497Z,99309.91
2023-03-27T20:52:12.844Z,99308.75
2023-03-27T20:54:39.369Z,99326.53
2023-03-27T20:57:05.891Z,99315.44
2023-03-27T20:59:32.315Z,99316.16
2023-03-27T21:01:59.600Z,99318.84
2023-03-27T21:04:28.160Z,99315.09
2023-03-27T21:06:57.723Z,99314.06
2023-03-27T21:09:26.960Z,99319.19
2023-03-27T21:11:55.074Z,99322.91
2023-03-27T21:14:21.862Z,99317.53
2023-03-27T21:16:48.617Z,99315.44
2023-03-27T21:19:15.862Z,99325.72
2023-03-27T21:21:42.643Z,99327.38
2023-03-27T21:24:09.190Z,99327.94
2023-03-27T21:26:36.483Z,99318.63
2023-03-27T21:29:03.559Z,99326.91
2023-03-27T21:31:30.791Z,99321.53
2023-03-27T21:33:57.340Z,99329.00
2023-03-27T21:36:24.568Z,99322.81
2023-03-27T21:38:51.784Z,99315.44
2023-03-27T21:41:19.798Z,99323.97
2023-03-27T21:43:46.234Z,99319.25
2023-03-27T21:46:12.885Z,99325.91
2023-03-27T21:48:40.720Z,99326.34
2023-03-27T21:51:08.380Z,99331.34
2023-03-27T21:53:35.828Z,99340.63
2023-03-27T21:56:02.956Z,99344.00
2023-03-27T21:58:29.970Z,99335.59
2023-03-27T22:00:57.606Z,99336.06
2023-03-27T22:03:25.577Z,99337.91
2023-03-27T22:06:08.076Z,99341.84
2023-03-27T22:08:38.250Z,99354.19
2023-03-27T22:11:05.344Z,99344.75
2023-03-27T22:13:31.888Z,99347.66
2023-03-27T22:15:58.659Z,99359.03
2023-03-27T22:18:25.601Z,99352.28
2023-03-27T22:20:52.035Z,99356.19
2023-03-27T22:23:19.269Z,99354.78
2023-03-27T22:25:53.253Z,99361.19
2023-03-27T22:28:19.722Z,99359.78
2023-03-27T22:30:46.131Z,99362.91
2023-03-27T22:33:12.472Z,99373.03
2023-03-27T22:35:38.960Z,99372.63
2023-03-27T22:38:05.532Z,99381.13
2023-03-27T22:40:31.997Z,99376.81
2023-03-27T22:42:58.384Z,99387.75
2023-03-27T22:45:24.936Z,99387.94
2023-03-27T22:47:51.493Z,99393.75
2023-03-27T22:50:17.982Z,99394.19
2023-03-27T22:52:44.379Z,99400.56
2023-03-27T22:55:11.068Z,99396.72
2023-03-27T22:57:37.684Z,99402.06
2023-03-27T23:00:06.207Z,99397.53
2023-03-27T23:02:32.696Z,99411.16
2023-03-27T23:04:59.188Z,99407.44
2023-03-27T23:07:25.640Z,99411.97
2023-03-27T23:09:52.076Z,99413.81
2023-03-27T23:12:18.432Z,99423.47
2023-03-27T23:14:44.824Z,99421.84
2023-03-27T23:17:11.324Z,99411.97
2023-03-27T23:19:37.752Z,99423.47
2023-03-27T23:22:04.174Z,99415.88
2023-03-27T23:24:31.031Z,99418.19
2023-03-27T23:26:57.425Z,99414.06
2023-03-27T23:29:23.934Z,99422.56
2023-03-27T23:31:50.717Z,99423.59
2023-03-27T23:34:17.119Z,99428.94
2023-03-27T23:36:43.952Z,99423.19
2023-03-27T23:39:10.359Z,99432.50
2023-03-27T23:41:36.753Z,99437.25
2023-03-27T23:44:03.410Z,99439.91
2023-03-27T23:46:29.921Z,99446.28
2023-03-27T23:48:56.265Z,99449.19
2023-03-27T23:51:22.754Z,99448.38
2023-03-27T23:53:50.457Z,99453.72
2023-03-27T23:56:16.890Z,99447.56
2023-03-27T23:58:43.394Z,99451.03
